Lifter — V2DD4 — position and weather

sailwx.info

Track history (hours):
 
Tides and Currents Weather Stations Pressure Air Temp Water Temp Dewpoint Dewpoint Depression Visibility Wind Speed Wind Dir Waves Ship Positions

Lifter

Last reported at 2015-Mar-24 14:32 UTC. Time now 2015-Apr-01 05:52 UTC.
Position N 35°32' E 032°54'.

Length 118 m; draft 5.5 m.

Type: Ship. MMSI: 305175000.

Date/timePositionNaut miles runAvg speedWind from/ knotsBaromVisibWave heightAir tempDewpointWater temp
2015-Mar-24 14:32N 35°32' E 032°54'  
2015-Mar-19 17:05N 36°42' E 014°29'713.0
2015-Mar-19 16:33N 36°46' E 014°23'1212.3
2015-Mar-19 15:33N 36°54' E 014°11'1313.2
2015-Mar-19 14:33N 36°56' E 013°55'2 1.5
2015-Mar-19 13:33N 36°55' E 013°53'  
2015-Mar-16 11:32N 35°60' W 005°10'1414.9
2015-Mar-16 10:34N 35°57' W 005°27'11512.7
2015-Mar-16 01:32N 36°13' W 007°48'1412.9
2015-Mar-16 00:26N 36°17' W 008°05'1813.1
2015-Mar-15 23:05N 36°22' W 008°26'813.2
2015-Mar-15 22:30N 36°25' W 008°35'1313.4
2015-Mar-15 21:33N 36°29' W 008°50'1313.3
2015-Mar-15 20:33N 36°32' W 009°06'2512.6
2015-Mar-15 18:33N 36°47' W 009°32'1313.4
2015-Mar-15 17:33N 36°60' W 009°36'2713.7
2015-Mar-15 15:33N 37°26' W 009°45'1414.1
2015-Mar-15 14:33N 37°40' W 009°49'1414.0
2015-Mar-15 13:32N 37°54' W 009°53'1413.8
2015-Mar-15 12:33N 38°07' W 009°56'1413.7
2015-Mar-15 11:33N 38°20' W 009°59'1313.6
2015-Mar-15 10:33N 38°34' W 010°02'1313.2
2015-Mar-15 09:33N 38°47' W 010°05'1313.1
2015-Mar-15 08:33N 38°60' W 010°06'1913.3
2015-Mar-15 07:06N 39°19' W 010°06'  
Track history (hours):
 
Tides and Currents Weather Stations Pressure Air Temp Water Temp Dewpoint Dewpoint Depression Visibility Wind Speed Wind Dir Waves Ship Positions

Lifter

Last reported at 2015-Mar-24 14:32 UTC. Time now 2015-Apr-01 05:52 UTC.
Position N 35°32' E 032°54'.

Length 118 m; draft 5.5 m.

Type: Ship. MMSI: 305175000.

Date/timePositionNaut miles runAvg speedWind from/ knotsBaromVisibWave heightAir tempDewpointWater temp
2015-Mar-24 14:32N 35°32' E 032°54'  
2015-Mar-19 17:05N 36°42' E 014°29'713.0
2015-Mar-19 16:33N 36°46' E 014°23'1212.3
2015-Mar-19 15:33N 36°54' E 014°11'1313.2
2015-Mar-19 14:33N 36°56' E 013°55'2 1.5
2015-Mar-19 13:33N 36°55' E 013°53'  
2015-Mar-16 11:32N 35°60' W 005°10'1414.9
2015-Mar-16 10:34N 35°57' W 005°27'11512.7
2015-Mar-16 01:32N 36°13' W 007°48'1412.9
2015-Mar-16 00:26N 36°17' W 008°05'1813.1
2015-Mar-15 23:05N 36°22' W 008°26'813.2
2015-Mar-15 22:30N 36°25' W 008°35'1313.4
2015-Mar-15 21:33N 36°29' W 008°50'1313.3
2015-Mar-15 20:33N 36°32' W 009°06'2512.6
2015-Mar-15 18:33N 36°47' W 009°32'1313.4
2015-Mar-15 17:33N 36°60' W 009°36'2713.7
2015-Mar-15 15:33N 37°26' W 009°45'1414.1
2015-Mar-15 14:33N 37°40' W 009°49'1414.0
2015-Mar-15 13:32N 37°54' W 009°53'1413.8
2015-Mar-15 12:33N 38°07' W 009°56'1413.7
2015-Mar-15 11:33N 38°20' W 009°59'1313.6
2015-Mar-15 10:33N 38°34' W 010°02'1313.2
2015-Mar-15 09:33N 38°47' W 010°05'1313.1
2015-Mar-15 08:33N 38°60' W 010°06'1913.3
2015-Mar-15 07:06N 39°19' W 010°06'  

Dump ship's entire track history